sensor_id;sensor_type;location;lat;lon;timestamp;temperature;humidity
40638;DHT22;26336;44.696;10.622;2023-01-19T00:00:36;5.90;99.90
40638;DHT22;26336;44.696;10.622;2023-01-19T00:03:39;5.90;99.90
40638;DHT22;26336;44.696;10.622;2023-01-19T00:06:44;5.90;99.90
40638;DHT22;26336;44.696;10.622;2023-01-19T00:09:47;5.80;99.90
40638;DHT22;26336;44.696;10.622;2023-01-19T00:12:51;5.80;99.90
40638;DHT22;26336;44.696;10.622;2023-01-19T00:15:55;5.80;99.90
40638;DHT22;26336;44.696;10.622;2023-01-19T00:18:59;5.80;99.90
40638;DHT22;26336;44.696;10.622;2023-01-19T00:22:03;5.70;99.90
40638;DHT22;26336;44.696;10.622;2023-01-19T00:25:08;5.70;99.90
40638;DHT22;26336;44.696;10.622;2023-01-19T00:28:14;5.70;99.90
40638;DHT22;26336;44.696;10.622;2023-01-19T00:31:18;5.70;99.90
40638;DHT22;26336;44.696;10.622;2023-01-19T00:34:24;5.70;99.90
40638;DHT22;26336;44.696;10.622;2023-01-19T00:37:27;5.70;99.90
40638;DHT22;26336;44.696;10.622;2023-01-19T00:40:31;5.70;99.90
40638;DHT22;26336;44.696;10.622;2023-01-19T00:43:35;5.70;99.90
40638;DHT22;26336;44.696;10.622;2023-01-19T00:46:39;5.70;99.90
40638;DHT22;26336;44.696;10.622;2023-01-19T00:49:43;5.70;99.90
40638;DHT22;26336;44.696;10.622;2023-01-19T00:52:47;5.70;99.90
40638;DHT22;26336;44.696;10.622;2023-01-19T00:55:51;5.70;99.90
40638;DHT22;26336;44.696;10.622;2023-01-19T00:58:55;5.60;99.90
40638;DHT22;26336;44.696;10.622;2023-01-19T01:01:59;5.60;99.90
40638;DHT22;26336;44.696;10.622;2023-01-19T01:05:04;5.50;99.90
40638;DHT22;26336;44.696;10.622;2023-01-19T01:08:08;5.50;99.90
40638;DHT22;26336;44.696;10.622;2023-01-19T01:11:13;5.50;99.90
40638;DHT22;26336;44.696;10.622;2023-01-19T01:14:19;5.30;99.90
40638;DHT22;26336;44.696;10.622;2023-01-19T01:17:23;5.20;99.90
40638;DHT22;26336;44.696;10.622;2023-01-19T01:20:27;5.30;99.90
40638;DHT22;26336;44.696;10.622;2023-01-19T01:23:33;5.30;99.90
40638;DHT22;26336;44.696;10.622;2023-01-19T01:26:37;5.30;99.90
40638;DHT22;26336;44.696;10.622;2023-01-19T01:29:41;5.40;99.90
40638;DHT22;26336;44.696;10.622;2023-01-19T01:32:48;5.40;99.90
40638;DHT22;26336;44.696;10.622;2023-01-19T01:35:53;5.40;99.90
40638;DHT22;26336;44.696;10.622;2023-01-19T01:38:57;5.40;99.90
40638;DHT22;26336;44.696;10.622;2023-01-19T01:42:02;5.40;99.90
40638;DHT22;26336;44.696;10.622;2023-01-19T01:45:31;5.50;99.90
40638;DHT22;26336;44.696;10.622;2023-01-19T01:48:37;5.50;99.90
40638;DHT22;26336;44.696;10.622;2023-01-19T01:51:45;5.50;99.90
40638;DHT22;26336;44.696;10.622;2023-01-19T01:54:51;5.50;99.90
40638;DHT22;26336;44.696;10.622;2023-01-19T01:58:00;5.40;99.90
40638;DHT22;26336;44.696;10.622;2023-01-19T02:01:05;5.50;99.90
40638;DHT22;26336;44.696;10.622;2023-01-19T02:04:30;5.50;99.90
40638;DHT22;26336;44.696;10.622;2023-01-19T02:11:43;5.50;99.90
40638;DHT22;26336;44.696;10.622;2023-01-19T02:15:13;5.50;99.90
40638;DHT22;26336;44.696;10.622;2023-01-19T02:18:19;5.50;99.90
40638;DHT22;26336;44.696;10.622;2023-01-19T02:21:45;5.50;99.90
40638;DHT22;26336;44.696;10.622;2023-01-19T02:24:53;5.50;99.90
40638;DHT22;26336;44.696;10.622;2023-01-19T02:27:58;5.50;99.90
40638;DHT22;26336;44.696;10.622;2023-01-19T02:31:02;5.50;99.90
40638;DHT22;26336;44.696;10.622;2023-01-19T02:34:09;5.50;99.90
40638;DHT22;26336;44.696;10.622;2023-01-19T02:37:14;5.50;99.90
40638;DHT22;26336;44.696;10.622;2023-01-19T02:40:21;5.50;99.90
40638;DHT22;26336;44.696;10.622;2023-01-19T02:43:29;5.50;99.90
40638;DHT22;26336;44.696;10.622;2023-01-19T02:46:33;5.50;99.90
40638;DHT22;26336;44.696;10.622;2023-01-19T02:49:37;5.50;99.90
40638;DHT22;26336;44.696;10.622;2023-01-19T02:52:41;5.50;99.90
40638;DHT22;26336;44.696;10.622;2023-01-19T02:56:37;5.50;99.90
40638;DHT22;26336;44.696;10.622;2023-01-19T02:59:44;5.50;99.90
40638;DHT22;26336;44.696;10.622;2023-01-19T03:06:43;5.50;99.90
40638;DHT22;26336;44.696;10.622;2023-01-19T03:19:31;5.50;99.90
40638;DHT22;26336;44.696;10.622;2023-01-19T03:22:37;5.50;99.90
40638;DHT22;26336;44.696;10.622;2023-01-19T03:25:44;5.50;99.90
40638;DHT22;26336;44.696;10.622;2023-01-19T03:28:50;5.50;99.90
40638;DHT22;26336;44.696;10.622;2023-01-19T03:31:56;5.50;99.90
40638;DHT22;26336;44.696;10.622;2023-01-19T03:35:06;5.50;99.90
40638;DHT22;26336;44.696;10.622;2023-01-19T03:38:15;5.60;99.90
40638;DHT22;26336;44.696;10.622;2023-01-19T03:41:21;5.50;99.90
40638;DHT22;26336;44.696;10.622;2023-01-19T03:44:27;5.60;99.90
40638;DHT22;26336;44.696;10.622;2023-01-19T03:47:32;5.60;99.90
40638;DHT22;26336;44.696;10.622;2023-01-19T03:50:37;5.60;99.90
40638;DHT22;26336;44.696;10.622;2023-01-19T03:53:41;5.50;99.90
40638;DHT22;26336;44.696;10.622;2023-01-19T03:56:45;5.50;99.90
40638;DHT22;26336;44.696;10.622;2023-01-19T03:59:49;5.50;99.90
40638;DHT22;26336;44.696;10.622;2023-01-19T04:02:53;5.50;99.90
40638;DHT22;26336;44.696;10.622;2023-01-19T04:05:58;5.50;99.90
40638;DHT22;26336;44.696;10.622;2023-01-19T04:09:02;5.50;99.90
40638;DHT22;26336;44.696;10.622;2023-01-19T04:12:06;5.50;99.90
40638;DHT22;26336;44.696;10.622;2023-01-19T04:15:10;5.50;99.90
40638;DHT22;26336;44.696;10.622;2023-01-19T04:18:13;5.50;99.90
40638;DHT22;26336;44.696;10.622;2023-01-19T04:21:18;5.50;99.90
40638;DHT22;26336;44.696;10.622;2023-01-19T04:24:23;5.50;99.90
40638;DHT22;26336;44.696;10.622;2023-01-19T04:27:27;5.50;99.90
40638;DHT22;26336;44.696;10.622;2023-01-19T04:30:31;5.50;99.90
40638;DHT22;26336;44.696;10.622;2023-01-19T04:33:34;5.40;99.90
40638;DHT22;26336;44.696;10.622;2023-01-19T04:36:39;5.40;99.90
40638;DHT22;26336;44.696;10.622;2023-01-19T04:39:43;5.40;99.90
40638;DHT22;26336;44.696;10.622;2023-01-19T04:42:47;5.40;99.90
40638;DHT22;26336;44.696;10.622;2023-01-19T04:45:51;5.40;99.90
40638;DHT22;26336;44.696;10.622;2023-01-19T04:48:54;5.30;99.90
40638;DHT22;26336;44.696;10.622;2023-01-19T04:51:58;5.30;99.90
40638;DHT22;26336;44.696;10.622;2023-01-19T04:55:05;5.30;99.90
40638;DHT22;26336;44.696;10.622;2023-01-19T04:58:08;5.30;99.90
40638;DHT22;26336;44.696;10.622;2023-01-19T05:01:12;5.20;99.90
40638;DHT22;26336;44.696;10.622;2023-01-19T05:04:16;5.10;99.90
40638;DHT22;26336;44.696;10.622;2023-01-19T05:07:20;5.10;99.90
40638;DHT22;26336;44.696;10.622;2023-01-19T05:10:24;5.10;99.90
40638;DHT22;26336;44.696;10.622;2023-01-19T05:13:28;5.00;99.90
40638;DHT22;26336;44.696;10.622;2023-01-19T05:16:32;4.80;99.90
40638;DHT22;26336;44.696;10.622;2023-01-19T05:19:37;4.70;99.90
40638;DHT22;26336;44.696;10.622;2023-01-19T05:22:41;4.60;99.90
40638;DHT22;26336;44.696;10.622;2023-01-19T05:25:45;4.50;99.90
40638;DHT22;26336;44.696;10.622;2023-01-19T05:28:49;4.50;99.90
40638;DHT22;26336;44.696;10.622;2023-01-19T05:31:55;4.40;99.90
40638;DHT22;26336;44.696;10.622;2023-01-19T05:34:59;4.40;99.90
40638;DHT22;26336;44.696;10.622;2023-01-19T05:38:03;4.40;99.90
40638;DHT22;26336;44.696;10.622;2023-01-19T05:41:07;4.30;99.90
40638;DHT22;26336;44.696;10.622;2023-01-19T05:44:11;4.30;99.90
40638;DHT22;26336;44.696;10.622;2023-01-19T05:47:15;4.30;99.90
40638;DHT22;26336;44.696;10.622;2023-01-19T05:50:19;4.40;99.90
40638;DHT22;26336;44.696;10.622;2023-01-19T05:53:23;4.40;99.90
40638;DHT22;26336;44.696;10.622;2023-01-19T05:56:27;4.50;99.90
40638;DHT22;26336;44.696;10.622;2023-01-19T05:59:31;4.50;99.90
40638;DHT22;26336;44.696;10.622;2023-01-19T06:02:36;4.50;99.90
40638;DHT22;26336;44.696;10.622;2023-01-19T06:05:40;4.50;99.90
40638;DHT22;26336;44.696;10.622;2023-01-19T06:08:44;4.60;99.90
40638;DHT22;26336;44.696;10.622;2023-01-19T06:11:49;4.60;99.90
40638;DHT22;26336;44.696;10.622;2023-01-19T06:14:53;4.60;99.90
40638;DHT22;26336;44.696;10.622;2023-01-19T06:17:57;4.50;99.90
40638;DHT22;26336;44.696;10.622;2023-01-19T06:21:06;4.50;99.90
40638;DHT22;26336;44.696;10.622;2023-01-19T06:24:10;4.50;99.90
40638;DHT22;26336;44.696;10.622;2023-01-19T06:27:15;4.50;99.90
40638;DHT22;26336;44.696;10.622;2023-01-19T06:30:20;4.40;99.90
40638;DHT22;26336;44.696;10.622;2023-01-19T06:33:24;4.40;99.90
40638;DHT22;26336;44.696;10.622;2023-01-19T06:36:28;4.40;99.90
40638;DHT22;26336;44.696;10.622;2023-01-19T06:39:33;4.30;99.90
40638;DHT22;26336;44.696;10.622;2023-01-19T06:42:36;4.40;99.90
40638;DHT22;26336;44.696;10.622;2023-01-19T06:45:40;4.40;99.90
40638;DHT22;26336;44.696;10.622;2023-01-19T06:48:44;4.40;99.90
40638;DHT22;26336;44.696;10.622;2023-01-19T06:51:48;4.40;99.90
40638;DHT22;26336;44.696;10.622;2023-01-19T06:54:53;4.40;99.90
40638;DHT22;26336;44.696;10.622;2023-01-19T06:57:58;4.40;99.90
40638;DHT22;26336;44.696;10.622;2023-01-19T07:01:03;4.50;99.90
40638;DHT22;26336;44.696;10.622;2023-01-19T07:04:07;4.50;99.90
40638;DHT22;26336;44.696;10.622;2023-01-19T07:07:13;4.50;99.90
40638;DHT22;26336;44.696;10.622;2023-01-19T07:10:18;4.40;99.90
40638;DHT22;26336;44.696;10.622;2023-01-19T07:13:22;4.30;99.90
40638;DHT22;26336;44.696;10.622;2023-01-19T07:16:26;4.30;99.90
40638;DHT22;26336;44.696;10.622;2023-01-19T07:19:29;4.30;99.90
40638;DHT22;26336;44.696;10.622;2023-01-19T07:22:33;4.40;99.90
40638;DHT22;26336;44.696;10.622;2023-01-19T07:25:37;4.40;99.90
40638;DHT22;26336;44.696;10.622;2023-01-19T07:28:42;4.40;99.90
40638;DHT22;26336;44.696;10.622;2023-01-19T07:31:46;4.50;99.90
40638;DHT22;26336;44.696;10.622;2023-01-19T07:34:51;4.50;99.90
40638;DHT22;26336;44.696;10.622;2023-01-19T07:37:57;4.50;99.90
40638;DHT22;26336;44.696;10.622;2023-01-19T07:41:03;4.50;99.90
40638;DHT22;26336;44.696;10.622;2023-01-19T07:44:08;4.50;99.90
40638;DHT22;26336;44.696;10.622;2023-01-19T07:47:12;4.50;99.90
40638;DHT22;26336;44.696;10.622;2023-01-19T07:50:17;4.50;99.90
40638;DHT22;26336;44.696;10.622;2023-01-19T07:53:23;4.50;99.90
40638;DHT22;26336;44.696;10.622;2023-01-19T07:56:27;4.50;99.90
40638;DHT22;26336;44.696;10.622;2023-01-19T07:59:33;4.40;99.90
40638;DHT22;26336;44.696;10.622;2023-01-19T08:02:37;4.50;99.90
40638;DHT22;26336;44.696;10.622;2023-01-19T08:05:41;4.50;99.90
40638;DHT22;26336;44.696;10.622;2023-01-19T08:08:45;4.50;99.90
40638;DHT22;26336;44.696;10.622;2023-01-19T08:11:49;4.50;99.90
40638;DHT22;26336;44.696;10.622;2023-01-19T08:14:53;4.50;99.90
40638;DHT22;26336;44.696;10.622;2023-01-19T08:17:58;4.50;99.90
40638;DHT22;26336;44.696;10.622;2023-01-19T08:21:02;4.50;99.90
40638;DHT22;26336;44.696;10.622;2023-01-19T08:24:17;4.50;99.90
40638;DHT22;26336;44.696;10.622;2023-01-19T08:27:21;4.50;99.90
40638;DHT22;26336;44.696;10.622;2023-01-19T08:30:25;4.40;99.90
40638;DHT22;26336;44.696;10.622;2023-01-19T08:33:29;4.40;99.90
40638;DHT22;26336;44.696;10.622;2023-01-19T08:36:34;4.40;99.90
40638;DHT22;26336;44.696;10.622;2023-01-19T08:39:38;4.40;99.90
40638;DHT22;26336;44.696;10.622;2023-01-19T08:42:42;4.50;99.90
40638;DHT22;26336;44.696;10.622;2023-01-19T08:45:50;4.50;99.90
40638;DHT22;26336;44.696;10.622;2023-01-19T08:48:54;4.50;99.90
40638;DHT22;26336;44.696;10.622;2023-01-19T08:51:58;4.60;99.90
40638;DHT22;26336;44.696;10.622;2023-01-19T08:55:02;4.50;99.90
40638;DHT22;26336;44.696;10.622;2023-01-19T08:58:07;4.60;99.90
40638;DHT22;26336;44.696;10.622;2023-01-19T09:01:12;4.60;99.90
40638;DHT22;26336;44.696;10.622;2023-01-19T09:04:17;4.50;99.90
40638;DHT22;26336;44.696;10.622;2023-01-19T09:07:21;4.50;99.90
40638;DHT22;26336;44.696;10.622;2023-01-19T09:10:25;4.50;99.90
40638;DHT22;26336;44.696;10.622;2023-01-19T09:13:31;4.50;99.90
40638;DHT22;26336;44.696;10.622;2023-01-19T09:16:34;4.60;99.90
40638;DHT22;26336;44.696;10.622;2023-01-19T09:19:39;4.60;99.90
40638;DHT22;26336;44.696;10.622;2023-01-19T09:22:43;4.60;99.90
40638;DHT22;26336;44.696;10.622;2023-01-19T09:25:59;4.60;99.90
40638;DHT22;26336;44.696;10.622;2023-01-19T09:29:03;4.70;99.90
40638;DHT22;26336;44.696;10.622;2023-01-19T09:32:07;4.70;99.90
40638;DHT22;26336;44.696;10.622;2023-01-19T09:35:13;4.70;99.90
40638;DHT22;26336;44.696;10.622;2023-01-19T09:38:18;4.70;99.90
40638;DHT22;26336;44.696;10.622;2023-01-19T09:41:22;4.70;99.90
40638;DHT22;26336;44.696;10.622;2023-01-19T09:44:31;4.70;99.90
40638;DHT22;26336;44.696;10.622;2023-01-19T09:47:37;4.70;99.90
40638;DHT22;26336;44.696;10.622;2023-01-19T09:50:41;4.70;99.90
40638;DHT22;26336;44.696;10.622;2023-01-19T09:57:17;4.80;99.90
40638;DHT22;26336;44.696;10.622;2023-01-19T10:00:21;4.80;99.90
40638;DHT22;26336;44.696;10.622;2023-01-19T10:03:27;4.80;99.90
40638;DHT22;26336;44.696;10.622;2023-01-19T10:06:31;4.80;99.90
40638;DHT22;26336;44.696;10.622;2023-01-19T10:13:49;4.80;99.90
40638;DHT22;26336;44.696;10.622;2023-01-19T10:16:35;4.90;99.90
40638;DHT22;26336;44.696;10.622;2023-01-19T10:19:48;4.90;99.90
40638;DHT22;26336;44.696;10.622;2023-01-19T10:22:55;4.90;99.90
40638;DHT22;26336;44.696;10.622;2023-01-19T10:26:03;4.90;99.90
40638;DHT22;26336;44.696;10.622;2023-01-19T10:29:29;4.80;99.90
40638;DHT22;26336;44.696;10.622;2023-01-19T10:32:40;4.80;99.90
40638;DHT22;26336;44.696;10.622;2023-01-19T10:35:43;4.70;99.90
40638;DHT22;26336;44.696;10.622;2023-01-19T10:38:51;4.70;99.90
40638;DHT22;26336;44.696;10.622;2023-01-19T10:41:56;4.70;99.90
40638;DHT22;26336;44.696;10.622;2023-01-19T10:45:08;4.70;99.90
40638;DHT22;26336;44.696;10.622;2023-01-19T10:48:17;4.70;99.90
40638;DHT22;26336;44.696;10.622;2023-01-19T10:51:21;4.70;99.90
40638;DHT22;26336;44.696;10.622;2023-01-19T10:54:26;4.80;99.90
40638;DHT22;26336;44.696;10.622;2023-01-19T10:57:35;4.80;99.90
40638;DHT22;26336;44.696;10.622;2023-01-19T11:00:42;4.80;99.90
40638;DHT22;26336;44.696;10.622;2023-01-19T11:03:47;4.80;99.90
40638;DHT22;26336;44.696;10.622;2023-01-19T11:06:51;4.90;99.90
40638;DHT22;26336;44.696;10.622;2023-01-19T11:13:17;4.90;99.90
40638;DHT22;26336;44.696;10.622;2023-01-19T11:16:27;4.90;99.90
40638;DHT22;26336;44.696;10.622;2023-01-19T11:19:32;5.00;99.90
40638;DHT22;26336;44.696;10.622;2023-01-19T11:22:36;5.00;99.90
40638;DHT22;26336;44.696;10.622;2023-01-19T11:25:45;5.00;99.90
40638;DHT22;26336;44.696;10.622;2023-01-19T11:28:52;5.00;99.90
40638;DHT22;26336;44.696;10.622;2023-01-19T11:32:10;5.00;99.90
40638;DHT22;26336;44.696;10.622;2023-01-19T11:39:14;5.10;99.90
40638;DHT22;26336;44.696;10.622;2023-01-19T11:42:04;5.10;99.90
40638;DHT22;26336;44.696;10.622;2023-01-19T11:45:16;5.00;99.90
40638;DHT22;26336;44.696;10.622;2023-01-19T11:48:32;5.00;99.90
40638;DHT22;26336;44.696;10.622;2023-01-19T11:52:04;5.00;99.90
40638;DHT22;26336;44.696;10.622;2023-01-19T11:58:40;4.80;99.90
40638;DHT22;26336;44.696;10.622;2023-01-19T12:01:51;4.80;99.90
40638;DHT22;26336;44.696;10.622;2023-01-19T12:05:00;4.80;99.90
40638;DHT22;26336;44.696;10.622;2023-01-19T12:08:13;4.80;99.90
40638;DHT22;26336;44.696;10.622;2023-01-19T12:11:24;4.80;99.90
40638;DHT22;26336;44.696;10.622;2023-01-19T12:14:57;4.80;99.90
40638;DHT22;26336;44.696;10.622;2023-01-19T12:18:04;4.80;99.90
40638;DHT22;26336;44.696;10.622;2023-01-19T12:21:09;4.80;99.90
40638;DHT22;26336;44.696;10.622;2023-01-19T12:30:39;4.80;99.90
40638;DHT22;26336;44.696;10.622;2023-01-19T12:33:46;4.80;99.90
40638;DHT22;26336;44.696;10.622;2023-01-19T12:36:51;4.70;99.90
40638;DHT22;26336;44.696;10.622;2023-01-19T12:39:58;4.70;99.90
40638;DHT22;26336;44.696;10.622;2023-01-19T12:43:04;4.60;99.90
40638;DHT22;26336;44.696;10.622;2023-01-19T12:46:29;4.60;99.90
40638;DHT22;26336;44.696;10.622;2023-01-19T12:49:43;4.70;99.90
40638;DHT22;26336;44.696;10.622;2023-01-19T12:52:49;4.70;99.90
40638;DHT22;26336;44.696;10.622;2023-01-19T12:55:58;4.60;99.90
40638;DHT22;26336;44.696;10.622;2023-01-19T12:59:03;4.60;99.90
40638;DHT22;26336;44.696;10.622;2023-01-19T13:03:40;4.60;99.90
40638;DHT22;26336;44.696;10.622;2023-01-19T13:05:58;4.60;99.90
40638;DHT22;26336;44.696;10.622;2023-01-19T13:09:02;4.60;99.90
40638;DHT22;26336;44.696;10.622;2023-01-19T13:15:33;4.60;99.90
40638;DHT22;26336;44.696;10.622;2023-01-19T13:26:22;4.60;99.90
40638;DHT22;26336;44.696;10.622;2023-01-19T13:29:40;4.60;99.90
40638;DHT22;26336;44.696;10.622;2023-01-19T13:32:47;4.60;99.90
40638;DHT22;26336;44.696;10.622;2023-01-19T13:35:54;4.50;99.90
40638;DHT22;26336;44.696;10.622;2023-01-19T13:39:10;4.40;99.90
40638;DHT22;26336;44.696;10.622;2023-01-19T13:42:36;4.40;99.90
40638;DHT22;26336;44.696;10.622;2023-01-19T13:45:47;4.40;99.90
40638;DHT22;26336;44.696;10.622;2023-01-19T13:48:55;4.40;99.90
40638;DHT22;26336;44.696;10.622;2023-01-19T13:55:20;4.40;99.90
40638;DHT22;26336;44.696;10.622;2023-01-19T13:58:24;4.40;99.90
40638;DHT22;26336;44.696;10.622;2023-01-19T14:01:28;4.40;99.90
40638;DHT22;26336;44.696;10.622;2023-01-19T14:04:34;4.40;99.90
40638;DHT22;26336;44.696;10.622;2023-01-19T14:07:38;4.40;99.90
40638;DHT22;26336;44.696;10.622;2023-01-19T14:10:46;4.30;99.90
40638;DHT22;26336;44.696;10.622;2023-01-19T14:14:21;4.30;99.90
40638;DHT22;26336;44.696;10.622;2023-01-19T14:17:28;4.30;99.90
40638;DHT22;26336;44.696;10.622;2023-01-19T14:20:32;4.30;99.90
40638;DHT22;26336;44.696;10.622;2023-01-19T14:26:52;4.40;99.90
40638;DHT22;26336;44.696;10.622;2023-01-19T14:30:20;4.40;99.90
40638;DHT22;26336;44.696;10.622;2023-01-19T14:33:41;4.40;99.90
40638;DHT22;26336;44.696;10.622;2023-01-19T14:36:48;4.40;99.90
40638;DHT22;26336;44.696;10.622;2023-01-19T14:43:13;4.30;99.90
40638;DHT22;26336;44.696;10.622;2023-01-19T14:46:17;4.30;99.90
40638;DHT22;26336;44.696;10.622;2023-01-19T14:49:37;4.30;99.90
40638;DHT22;26336;44.696;10.622;2023-01-19T14:52:54;4.20;99.90
40638;DHT22;26336;44.696;10.622;2023-01-19T14:56:03;4.20;99.90
40638;DHT22;26336;44.696;10.622;2023-01-19T14:59:08;4.20;99.90
40638;DHT22;26336;44.696;10.622;2023-01-19T15:02:13;4.20;99.90
40638;DHT22;26336;44.696;10.622;2023-01-19T15:05:17;4.10;99.90
40638;DHT22;26336;44.696;10.622;2023-01-19T15:08:32;4.20;99.90
40638;DHT22;26336;44.696;10.622;2023-01-19T15:11:37;4.20;99.90
40638;DHT22;26336;44.696;10.622;2023-01-19T15:14:40;4.20;99.90
40638;DHT22;26336;44.696;10.622;2023-01-19T15:17:44;4.20;99.90
40638;DHT22;26336;44.696;10.622;2023-01-19T15:20:48;4.20;99.90
40638;DHT22;26336;44.696;10.622;2023-01-19T15:23:53;4.20;99.90
40638;DHT22;26336;44.696;10.622;2023-01-19T15:26:57;4.20;99.90
40638;DHT22;26336;44.696;10.622;2023-01-19T15:30:12;4.20;99.90
40638;DHT22;26336;44.696;10.622;2023-01-19T15:33:26;4.20;99.90
40638;DHT22;26336;44.696;10.622;2023-01-19T15:36:30;4.20;99.90
40638;DHT22;26336;44.696;10.622;2023-01-19T15:39:33;4.20;99.90
40638;DHT22;26336;44.696;10.622;2023-01-19T15:42:38;4.20;99.90
40638;DHT22;26336;44.696;10.622;2023-01-19T15:48:51;4.10;99.90
40638;DHT22;26336;44.696;10.622;2023-01-19T15:51:55;4.10;99.90
40638;DHT22;26336;44.696;10.622;2023-01-19T15:55:00;4.10;99.90
40638;DHT22;26336;44.696;10.622;2023-01-19T15:58:07;4.10;99.90
40638;DHT22;26336;44.696;10.622;2023-01-19T16:01:13;4.10;99.90
40638;DHT22;26336;44.696;10.622;2023-01-19T16:04:20;4.10;99.90
40638;DHT22;26336;44.696;10.622;2023-01-19T16:07:24;4.10;99.90
40638;DHT22;26336;44.696;10.622;2023-01-19T16:10:28;4.00;99.90
40638;DHT22;26336;44.696;10.622;2023-01-19T16:13:33;4.00;99.90
40638;DHT22;26336;44.696;10.622;2023-01-19T16:16:37;4.10;99.90
40638;DHT22;26336;44.696;10.622;2023-01-19T16:19:41;4.00;99.90
40638;DHT22;26336;44.696;10.622;2023-01-19T16:22:45;3.90;99.90
40638;DHT22;26336;44.696;10.622;2023-01-19T16:26:03;3.90;99.90
40638;DHT22;26336;44.696;10.622;2023-01-19T16:29:10;3.90;99.90
40638;DHT22;26336;44.696;10.622;2023-01-19T16:32:14;3.80;99.90
40638;DHT22;26336;44.696;10.622;2023-01-19T16:35:20;3.80;99.90
40638;DHT22;26336;44.696;10.622;2023-01-19T16:38:25;3.80;99.90
40638;DHT22;26336;44.696;10.622;2023-01-19T16:41:29;3.80;99.90
40638;DHT22;26336;44.696;10.622;2023-01-19T16:44:33;3.80;99.90
40638;DHT22;26336;44.696;10.622;2023-01-19T16:47:37;3.80;99.90
40638;DHT22;26336;44.696;10.622;2023-01-19T16:50:42;3.80;99.90
40638;DHT22;26336;44.696;10.622;2023-01-19T16:53:47;3.90;99.90
40638;DHT22;26336;44.696;10.622;2023-01-19T16:56:54;3.90;99.90
40638;DHT22;26336;44.696;10.622;2023-01-19T17:00:02;3.90;99.90
40638;DHT22;26336;44.696;10.622;2023-01-19T17:03:07;3.90;99.90
40638;DHT22;26336;44.696;10.622;2023-01-19T17:06:13;4.00;99.90
40638;DHT22;26336;44.696;10.622;2023-01-19T17:09:18;3.90;99.90
40638;DHT22;26336;44.696;10.622;2023-01-19T17:12:22;3.90;99.90
40638;DHT22;26336;44.696;10.622;2023-01-19T17:15:29;3.90;99.90
40638;DHT22;26336;44.696;10.622;2023-01-19T17:18:35;3.90;99.90
40638;DHT22;26336;44.696;10.622;2023-01-19T17:21:41;3.90;99.90
40638;DHT22;26336;44.696;10.622;2023-01-19T17:24:45;3.90;99.90
40638;DHT22;26336;44.696;10.622;2023-01-19T17:27:50;3.80;99.90
40638;DHT22;26336;44.696;10.622;2023-01-19T17:30:54;3.90;99.90
40638;DHT22;26336;44.696;10.622;2023-01-19T17:34:02;3.80;99.90
40638;DHT22;26336;44.696;10.622;2023-01-19T17:37:06;3.90;99.90
40638;DHT22;26336;44.696;10.622;2023-01-19T17:40:10;3.90;99.90
40638;DHT22;26336;44.696;10.622;2023-01-19T17:43:14;3.90;99.90
40638;DHT22;26336;44.696;10.622;2023-01-19T17:46:23;4.00;99.90
40638;DHT22;26336;44.696;10.622;2023-01-19T17:49:27;4.00;99.90
40638;DHT22;26336;44.696;10.622;2023-01-19T17:52:31;4.00;99.90
40638;DHT22;26336;44.696;10.622;2023-01-19T17:55:36;4.00;99.90
40638;DHT22;26336;44.696;10.622;2023-01-19T17:58:40;4.10;99.90
40638;DHT22;26336;44.696;10.622;2023-01-19T18:01:44;4.10;99.90
40638;DHT22;26336;44.696;10.622;2023-01-19T18:04:50;4.00;99.90
40638;DHT22;26336;44.696;10.622;2023-01-19T18:07:56;4.00;99.90
40638;DHT22;26336;44.696;10.622;2023-01-19T18:11:02;4.00;99.90
40638;DHT22;26336;44.696;10.622;2023-01-19T18:14:06;4.10;99.90
40638;DHT22;26336;44.696;10.622;2023-01-19T18:17:10;4.10;99.90
40638;DHT22;26336;44.696;10.622;2023-01-19T18:20:14;4.10;99.90
40638;DHT22;26336;44.696;10.622;2023-01-19T18:23:18;4.10;99.90
40638;DHT22;26336;44.696;10.622;2023-01-19T18:26:21;4.10;99.90
40638;DHT22;26336;44.696;10.622;2023-01-19T18:29:26;4.10;99.90
40638;DHT22;26336;44.696;10.622;2023-01-19T18:32:33;4.10;99.90
40638;DHT22;26336;44.696;10.622;2023-01-19T18:35:37;4.10;99.90
40638;DHT22;26336;44.696;10.622;2023-01-19T18:38:42;4.10;99.90
40638;DHT22;26336;44.696;10.622;2023-01-19T18:41:46;4.00;99.90
40638;DHT22;26336;44.696;10.622;2023-01-19T18:44:50;4.00;99.90
40638;DHT22;26336;44.696;10.622;2023-01-19T18:47:54;4.00;99.90
40638;DHT22;26336;44.696;10.622;2023-01-19T18:50:58;4.00;99.90
40638;DHT22;26336;44.696;10.622;2023-01-19T18:54:06;4.10;99.90
40638;DHT22;26336;44.696;10.622;2023-01-19T18:57:10;4.00;99.90
40638;DHT22;26336;44.696;10.622;2023-01-19T19:00:14;4.00;99.90
40638;DHT22;26336;44.696;10.622;2023-01-19T19:03:18;4.00;99.90
40638;DHT22;26336;44.696;10.622;2023-01-19T19:06:24;4.00;99.90
40638;DHT22;26336;44.696;10.622;2023-01-19T19:09:29;4.00;99.90
40638;DHT22;26336;44.696;10.622;2023-01-19T19:12:33;3.90;99.90
40638;DHT22;26336;44.696;10.622;2023-01-19T19:15:38;4.00;99.90
40638;DHT22;26336;44.696;10.622;2023-01-19T19:18:41;3.90;99.90
40638;DHT22;26336;44.696;10.622;2023-01-19T19:21:45;4.00;99.90
40638;DHT22;26336;44.696;10.622;2023-01-19T19:24:49;4.00;99.90
40638;DHT22;26336;44.696;10.622;2023-01-19T19:27:53;4.00;99.90
40638;DHT22;26336;44.696;10.622;2023-01-19T19:31:05;3.90;99.90
40638;DHT22;26336;44.696;10.622;2023-01-19T19:34:10;3.90;99.90
40638;DHT22;26336;44.696;10.622;2023-01-19T19:37:15;3.90;99.90
40638;DHT22;26336;44.696;10.622;2023-01-19T19:40:19;3.80;99.90
40638;DHT22;26336;44.696;10.622;2023-01-19T19:43:23;3.80;99.90
40638;DHT22;26336;44.696;10.622;2023-01-19T19:46:27;3.80;99.90
40638;DHT22;26336;44.696;10.622;2023-01-19T19:49:31;3.80;99.90
40638;DHT22;26336;44.696;10.622;2023-01-19T19:52:40;3.80;99.90
40638;DHT22;26336;44.696;10.622;2023-01-19T19:55:57;3.80;99.90
40638;DHT22;26336;44.696;10.622;2023-01-19T19:59:01;3.80;99.90
40638;DHT22;26336;44.696;10.622;2023-01-19T20:02:05;3.80;99.90
40638;DHT22;26336;44.696;10.622;2023-01-19T20:05:09;3.80;99.90
40638;DHT22;26336;44.696;10.622;2023-01-19T20:08:13;3.80;99.90
40638;DHT22;26336;44.696;10.622;2023-01-19T20:11:19;3.80;99.90
40638;DHT22;26336;44.696;10.622;2023-01-19T20:14:23;3.80;99.90
40638;DHT22;26336;44.696;10.622;2023-01-19T20:17:27;3.70;99.90
40638;DHT22;26336;44.696;10.622;2023-01-19T20:20:33;3.80;99.90
40638;DHT22;26336;44.696;10.622;2023-01-19T20:23:37;3.80;99.90
40638;DHT22;26336;44.696;10.622;2023-01-19T20:26:45;3.80;99.90
40638;DHT22;26336;44.696;10.622;2023-01-19T20:29:49;3.90;99.90
40638;DHT22;26336;44.696;10.622;2023-01-19T20:32:55;3.80;99.90
40638;DHT22;26336;44.696;10.622;2023-01-19T20:35:59;3.80;99.90
40638;DHT22;26336;44.696;10.622;2023-01-19T20:39:03;3.90;99.90
40638;DHT22;26336;44.696;10.622;2023-01-19T20:42:12;3.90;99.90